Time;durP1;ratioP1;P1;durP2;ratioP2;P2;SDS_P1;SDS_P2;PMS_P1;PMS_P2;Temp;Humidity;BMP_temperature;BMP_pressure;BME280_temperature;BME280_humidity;BME280_pressure;Samples;Min_cycle;Max_cycle;Signal;HPM_P1;HPM_P2
2022/06/23 00:02:21;;;;;;;6.63;3.22;;;;;;;16.83;69.05;101002.75;5197303;28;20076;-73
2022/06/23 00:04:56;;;;;;;;;;;;;;;16.86;64.91;100991.69;5197523;28;20443;-73
2022/06/23 00:07:32;;;;;;;;;;;;;;;16.82;64.23;100983.06;5200364;28;20323;-73
2022/06/23 00:10:12;;;;;;;;;;;;;;;16.78;64.43;100989.75;5200197;28;20299;-73
2022/06/23 00:12:45;;;;;;;;;;;;;;;16.75;64.04;100998.13;5201137;28;19917;-73
2022/06/23 00:15:19;;;;;;;;;;;;;;;16.71;64.27;100988.66;5198205;28;20334;-74
2022/06/23 00:17:58;;;;;;;;;;;;;;;16.68;64.19;100986.25;5203181;28;19951;-74
2022/06/23 00:20:50;;;;;;;;;;;;;;;16.63;64.72;100992.13;5205641;28;19926;-73
2022/06/23 00:23:32;;;;;;;;;;;;;;;16.59;64.49;100993.44;5206175;28;20465;-74
2022/06/23 00:26:07;;;;;;;;;;;;;;;16.56;64.63;100987.50;5208136;28;19940;-73
2022/06/23 00:28:46;;;;;;;;;;;;;;;16.51;64.61;100984.41;5205353;28;19914;-73
2022/06/23 00:31:32;;;;;;;;;;;;;;;16.46;64.49;100983.00;5205221;28;19917;-74
2022/06/23 00:34:17;;;;;;;;;;;;;;;16.43;65.08;100994.13;5203589;28;19924;-74
2022/06/23 00:36:50;;;;;;;;;;;;;;;16.37;65.17;100997.38;5204587;28;19921;-73
2022/06/23 00:39:31;;;;;;;;;;;;;;;16.32;65.24;100999.72;5204591;28;19917;-73
2022/06/23 00:42:03;;;;;;;;;;;;;;;16.29;66.11;100993.78;5202428;28;19929;-73
2022/06/23 00:44:44;;;;;;;;;;;;;;;16.24;65.86;100995.06;5211879;28;19922;-74
2022/06/23 00:47:20;;;;;;;;;;;;;;;16.21;65.93;100986.44;5202732;28;20000;-73
2022/06/23 00:49:54;;;;;;;;;;;;;;;16.19;66.07;100989.28;5197672;28;20048;-73
2022/06/23 00:52:29;;;;;;;;;;;;;;;16.16;66.42;100986.88;5196431;28;19921;-74
2022/06/23 00:55:04;;;;;;;;;;;;;;;16.13;66.40;100980.94;5196345;28;20435;-74
2022/06/23 00:57:38;;;;;;;;;;;;;;;16.11;66.75;100967.66;5190596;28;19926;-74
2022/06/23 01:00:16;;;;;;;;;;;;;;;16.11;67.46;100969.50;5192567;28;19925;-73
2022/06/23 01:02:51;;;;;;;;;;;;;;;16.09;67.40;100966.97;5188869;28;20041;-74
2022/06/23 01:05:29;;;;;;;;;;;;;;;16.06;67.62;100980.72;5194833;28;19917;-73
2022/06/23 01:08:03;;;;;;;;;;;;;;;16.02;67.53;100973.94;5204520;28;20295;-74
2022/06/23 01:10:44;;;;;;;;;;;;;;;15.99;68.12;100963.47;5198785;28;19918;-74
2022/06/23 01:13:30;;;;;;;;;;;;;;;15.95;67.90;100967.47;5202634;28;19917;-74
2022/06/23 01:16:13;;;;;;;;;;;;;;;15.94;68.44;100960.41;5207021;28;20532;-74
2022/06/23 01:18:48;;;;;;;;;;;;;;;15.91;68.33;100971.44;5204299;28;19917;-74
2022/06/23 01:21:21;;;;;;;;;;;;;;;15.90;68.59;100973.31;5201820;28;19944;-73
2022/06/23 01:24:02;;;;;;;;;;;;;;;15.87;68.93;100973.59;5219827;28;19929;-74
2022/06/23 01:26:39;;;;;;;;;;;;;;;15.83;69.11;100970.34;5205745;28;19917;-73
2022/06/23 01:29:10;;;;;;;;;;;;;;;15.80;69.16;100965.28;5204327;28;20172;-73
2022/06/23 01:31:44;;;;;;;;;;;;;;;15.78;69.60;100971.78;5205257;28;19922;-74
2022/06/23 01:34:21;;;;;;;;;;;;;;;15.73;69.71;100968.69;5206441;28;19972;-73
2022/06/23 01:36:59;;;;;;;;;;;;;;;15.69;70.18;100968.13;5201827;28;19921;-74
2022/06/23 01:39:37;;;;;;;;;;;;;;;15.67;71.15;100970.94;5200798;28;19921;-73
2022/06/23 01:42:35;;;;;;;;;;;;;;;15.65;70.94;100966.72;5204951;28;19947;-73
2022/06/23 01:45:06;;;;;;;;;;;;;;;15.60;71.47;100971.69;5196854;28;20568;-73
2022/06/23 01:48:03;;;;;;;;;;;;;;;15.57;71.32;100971.97;5198112;28;19937;-74
2022/06/23 01:50:56;;;;;;;;;;;;;;;15.54;71.51;100974.97;5192913;28;19921;-73
2022/06/23 01:53:28;;;;;;;;;;;;;;;15.49;71.70;100978.09;5196275;28;19921;-73
2022/06/23 01:56:06;;;;;;;;;;;;;;;15.46;71.85;100979.22;5194181;28;19917;-74
2022/06/23 01:58:56;;;;;;;;;;;;;;;15.46;72.08;100967.63;5192973;28;19941;-74
2022/06/23 02:01:46;;;;;;;;;;;;;;;15.44;72.33;100958.88;5193128;28;20460;-73
2022/06/23 02:04:32;;;;;;;;;;;;;;;15.43;72.41;100966.06;5196817;28;20296;-73
2022/06/23 02:07:10;;;;;;;;;;;;;;;15.43;72.69;100962.53;5194017;28;19921;-73
2022/06/23 02:09:48;;;;;;;;;;;;;;;15.41;73.11;100954.63;5197402;28;19913;-73
2022/06/23 02:12:26;;;;;;;;;;;;;;;15.40;72.90;100961.00;5198842;28;20012;-73
2022/06/23 02:15:04;;;;;;;;;;;;;;;15.40;73.70;100963.69;5202560;28;19948;-73
2022/06/23 02:17:56;;;;;;;;;;;;;;;15.37;73.22;100953.22;5200114;28;19917;-74
2022/06/23 02:20:38;;;;;;;;;;;;;;;15.35;73.41;100963.28;5197418;28;19921;-73
2022/06/23 02:23:21;;;;;;;;;;;;;;;15.33;73.72;100951.81;5195375;28;19936;-74
2022/06/23 02:25:55;;;;;;;;;;;;;;;15.34;74.75;100947.28;5197438;28;19922;-73
2022/06/23 02:28:45;;;;;;;;;;;;;;;15.32;74.62;100952.78;5192974;28;20015;-73
2022/06/23 02:31:23;;;;;;;;;;;;;;;15.30;74.65;100954.78;5212995;28;19921;-73
2022/06/23 02:33:54;;;;;;;;;;;;;;;15.29;75.39;100953.94;5196882;28;19940;-73
2022/06/23 02:36:31;;;;;;;;;;;;;;;15.28;75.09;100946.03;5218089;28;19921;-74
2022/06/23 02:39:13;;;;;;;;;;;;;;;15.29;75.72;100945.03;5201303;28;20368;-73
2022/06/23 02:41:52;;;;;;;;;;;;;;;15.31;75.33;100956.50;5207325;28;20378;-73
2022/06/23 02:44:42;;;;;;;;;;;;;;;15.35;75.71;100955.19;5201285;28;20564;-73
2022/06/23 02:47:22;;;;;;;;;;;;;;;15.38;75.98;100957.63;5199927;28;19979;-74
2022/06/23 02:49:58;;;;;;;;;;;;;;;15.38;75.92;100952.25;5203948;28;20334;-74
2022/06/23 02:52:41;;;;;;;;;;;;;;;15.37;75.90;100949.69;5200471;28;19917;-73
2022/06/23 02:55:21;;;;;;;;;;;;;;;15.36;76.39;100948.84;5203349;28;19975;-74
2022/06/23 02:57:55;;;;;;;;;;;;;;;15.35;77.01;100949.00;5202416;28;20392;-73
2022/06/23 03:00:41;;;;;;;;;;;;;;;15.33;76.33;100943.75;5201225;28;20483;-73
2022/06/23 03:03:34;;;;;;;;;;;;;;;15.33;76.54;100937.53;5198115;28;19944;-73
2022/06/23 03:06:24;;;;;;;;;;;;;;;15.31;77.18;100942.22;5190857;28;19928;-74
2022/06/23 03:09:07;;;;;;;;;;;;;;;15.28;77.25;100936.13;5190422;28;20427;-73
2022/06/23 03:11:55;;;;;;;;;;;;;;;15.28;76.88;100933.44;5196099;28;19929;-74
2022/06/23 03:14:45;;;;;;;;;;;;;;;15.25;77.25;100931.03;5201772;28;19964;-73
2022/06/23 03:17:25;;;;;;;;;;;;;;;15.21;77.09;100926.94;5201996;28;19940;-73
2022/06/23 03:19:56;;;;;;;;;;;;;;;15.21;77.62;100918.06;5197297;28;19925;-73
2022/06/23 03:22:37;;;;;;;;;;;;;;;15.17;77.15;100920.19;5208123;28;19932;-74
2022/06/23 03:25:31;;;;;;;;;;;;;;;15.16;77.46;100918.47;5198864;28;20439;-74
2022/06/23 03:28:05;;;;;;;;;;;;;;;15.14;77.75;100920.47;5192551;28;20121;-74
2022/06/23 03:30:46;;;;;;;;;;;;;;;15.13;77.95;100912.53;5195663;28;19914;-74
2022/06/23 03:33:22;;;;;;;;;;;;;;;15.12;77.69;100925.13;5208205;28;19919;-74
2022/06/23 03:35:55;;;;;;;;;;;;;;;15.12;77.43;100937.72;5199120;28;19928;-73
2022/06/23 03:41:39;;;;;;;;;;;;;;;15.06;78.09;100937.31;5199613;28;19964;-74
2022/06/23 03:44:21;;;;;;;;;;;;;;;15.02;78.50;100940.44;5203554;28;19922;-74
2022/06/23 03:46:52;;;;;;;;;;;;;;;14.99;78.80;100944.25;5204567;28;20058;-74
2022/06/23 03:49:42;;;;;;;;;;;;;;;14.96;78.56;100939.16;5197501;28;20355;-74
2022/06/23 03:52:19;;;;;;;;;;;;;;;14.95;78.47;100936.63;5202556;28;19933;-74
2022/06/23 03:55:06;;;;;;;;;;;;;;;14.93;78.55;100941.28;5197560;28;20134;-74
2022/06/23 03:57:42;;;;;;;;;;;;;;;14.89;78.98;100938.88;5208807;28;19936;-74
2022/06/23 04:00:18;;;;;;;;;;;;;;;14.89;78.83;100948.78;5196942;28;19913;-74
2022/06/23 04:03:05;;;;;;;;;;;;;;;14.88;79.12;100942.56;5198606;28;20028;-74
2022/06/23 04:05:54;;;;;;;;;;;;;;;14.87;78.67;100940.03;5197816;28;19913;-74
2022/06/23 04:08:28;;;;;;;;;;;;;;;14.87;79.07;100943.56;5196929;28;19917;-73
2022/06/23 04:11:43;;;;;;;;;;;;;;;14.88;79.15;100936.34;5203641;28;20132;-73
2022/06/23 04:13:55;;;;;;;;;;;;;;;14.90;79.12;100939.75;5203562;28;20040;-74
2022/06/23 04:16:26;;;;;;;;;;;;;;;14.92;79.17;100934.22;5204205;28;19917;-73
2022/06/23 04:18:57;;;;;;;;;;;;;;;14.94;79.14;100935.78;5201809;28;19923;-72
2022/06/23 04:21:28;;;;;;;;;;;;;;;14.97;79.44;100922.03;5201888;28;20242;-73
2022/06/23 04:24:02;;;;;;;;;;;;;;;14.98;79.31;100918.38;5199989;28;19952;-74
2022/06/23 04:26:37;;;;;;;;;;;;;;;15.00;79.64;100916.38;5200904;28;19921;-74
2022/06/23 04:29:18;;;;;;;;;;;;;;;15.05;79.43;100905.19;5197510;28;20062;-73
2022/06/23 04:32:09;;;;;;;;;;;;;;;15.09;79.28;100918.22;5198077;28;19925;-74
2022/06/23 04:34:45;;;;;;;;;;;;;;;15.13;79.88;100936.72;5214227;28;20463;-74
2022/06/23 04:37:23;;;;;;;;;;;;;;;15.16;79.32;100939.97;5203070;28;19964;-74
2022/06/23 04:40:01;;;;;;;;;;;;;;;15.19;79.81;100936.16;5203671;28;19964;-73
2022/06/23 04:42:33;;;;;;;;;;;;;;;15.23;79.63;100924.97;5202945;28;20336;-73
2022/06/23 04:45:23;;;;;;;;;;;;;;;15.29;79.78;100934.28;5199001;28;20000;-74
2022/06/23 04:47:57;;;;;;;;;;;;;;;15.36;79.60;100931.84;5200620;28;20359;-73
2022/06/23 04:50:36;;;;;;;;;;;;;;;15.40;79.92;100926.03;5204027;28;19924;-74
2022/06/23 04:53:16;;;;;;;;;;;;;;;15.45;79.72;100933.66;5201076;28;19941;-74
2022/06/23 04:55:55;;;;;;;;;;;;;;;15.47;79.37;100927.16;5198697;28;20002;-73
2022/06/23 04:58:26;;;;;;;;;;;;;;;15.53;79.17;100924.84;5201861;28;20371;-75
2022/06/23 05:00:57;;;;;;;;;;;;;;;15.56;79.22;100919.19;5198878;28;19973;-73
2022/06/23 05:03:35;;;;;;;;;;;;;;;15.61;78.93;100933.91;5199560;28;19940;-73
2022/06/23 05:06:06;;;;;;;;;;;;;;;15.65;79.08;100932.59;5197429;28;20562;-74
2022/06/23 05:08:39;;;;;;;;;;;;;;;15.68;78.68;100936.81;5192715;28;21381;-73
2022/06/23 05:11:14;;;;;;;;;;;;;;;15.72;78.91;100930.16;5197960;28;19921;-74
2022/06/23 05:13:50;;;;;;;;;;;;;;;15.75;79.36;100935.28;5199253;28;20241;-74
2022/06/23 05:16:28;;;;;;;;;;;;;;;15.80;78.77;100938.38;5207266;28;19913;-73
2022/06/23 05:19:05;;;;;;;;;;;;;;;15.86;78.73;100943.16;5209710;28;19943;-74
2022/06/23 05:21:39;;;;;;;;;;;;;;;15.91;78.86;100936.47;5206850;28;19921;-74
2022/06/23 05:24:24;;;;;;;;;;;;;;;15.95;79.12;100930.63;5205262;28;19995;-73
2022/06/23 05:26:58;;;;;;;;;;;;;;;16.01;78.63;100923.78;5203099;28;20375;-74
2022/06/23 05:29:35;;;;;;;;;;;;;;;16.06;78.80;100932.28;5208577;28;19995;-73
2022/06/23 05:32:13;;;;;;;;;;;;;;;16.12;78.35;100931.66;5209443;28;19921;-74
2022/06/23 05:34:50;;;;;;;;;;;;;;;16.16;78.53;100933.03;5200289;28;20499;-73
2022/06/23 05:37:31;;;;;;;;;;;;;;;16.23;78.21;100934.13;5206253;28;19917;-74
2022/06/23 05:40:05;;;;;;;;;;;;;;;16.30;78.55;100939.78;5203939;28;20007;-74
2022/06/23 05:42:38;;;;;;;;;;;;;;;16.38;78.13;100933.63;5205702;28;19917;-74
2022/06/23 05:45:14;;;;;;;;;;;;;;;16.45;78.48;100934.69;5209089;28;20000;-74
2022/06/23 05:47:46;;;;;;;;;;;;;;;16.50;78.18;100926.16;5213435;28;20376;-73
2022/06/23 05:50:24;;;;;;;;;;;;;;;16.56;78.50;100929.06;5207420;28;19943;-74
2022/06/23 05:53:09;;;;;;;;;;;;;;;16.62;78.35;100936.53;5204848;28;19917;-73
2022/06/23 05:56:02;;;;;;;;;;;;;;;16.71;78.05;100936.63;5203045;28;19924;-74
2022/06/23 05:58:46;;;;;;;;;;;;;;;16.80;78.33;100938.38;5204515;28;20043;-74
2022/06/23 06:01:36;;;;;;;;;;;;;;;16.88;78.22;100941.19;5192255;28;19925;-74
2022/06/23 06:04:15;;;;;;;;;;;;;;;16.94;77.82;100937.84;5198900;28;19914;-74
2022/06/23 06:06:47;;;;;;;;;;;;;;;17.04;77.35;100935.06;5193079;28;20348;-73
2022/06/23 06:09:35;;;;;;;;;;;;;;;17.12;77.35;100935.09;5200830;28;20051;-74
2022/06/23 06:12:14;;;;;;;;;;;;;;;17.21;77.28;100933.31;5198643;28;19924;-74
2022/06/23 06:14:54;;;;;;;;;;;;;;;17.28;77.54;100929.00;5182296;28;19917;-74
2022/06/23 06:17:28;;;;;;;;;;;;;;;17.36;77.55;100925.50;5190426;28;19980;-74
2022/06/23 06:20:03;;;;;;;;;;;;;;;17.43;77.34;100921.13;5205727;28;20110;-74
2022/06/23 06:22:54;;;;;;;;;;;;;;;17.52;77.35;100920.16;5184842;28;20005;-74
2022/06/23 06:25:26;;;;;;;;;;;;;;;17.65;77.25;100930.53;5193519;28;20361;-74
2022/06/23 06:28:01;;;;;;;;;;;;;;;17.77;76.99;100922.97;5196198;28;19917;-74
2022/06/23 06:30:35;;;;;;;;;;;;;;;17.88;76.56;100920.03;5191829;28;20363;-74
2022/06/23 06:33:09;;;;;;;;;;;;;;;18.01;76.31;100928.50;5206216;28;19940;-74
2022/06/23 06:35:42;;;;;;;;;;;;;;;18.13;76.02;100939.00;5213001;28;19963;-74
2022/06/23 06:38:15;;;;;;;;;;;;;;;18.26;75.99;100938.53;5204874;28;20195;-74
2022/06/23 06:40:48;;;;;;;;;;;;;;;18.42;75.65;100941.25;5203895;28;19921;-74
2022/06/23 06:43:26;;;;;;;;;;;;;;;18.56;75.42;100937.91;5205250;28;20880;-74
2022/06/23 06:45:58;;;;;;;;;;;;;;;18.72;75.42;100928.97;5195981;28;20004;-74
2022/06/23 06:48:31;;;;;;;;;;;;;;;18.86;74.69;100924.75;5198142;28;19920;-74
2022/06/23 06:51:06;;;;;;;;;;;;;;;19.00;74.54;100928.63;5196781;28;20303;-74
2022/06/23 06:53:43;;;;;;;;;;;;;;;19.13;74.15;100925.41;5193168;28;19928;-74
2022/06/23 06:56:18;;;;;;;;;;;;;;;19.30;73.14;100934.34;5188485;28;19922;-75
2022/06/23 06:58:53;;;;;;;;;;;;;;;19.46;73.65;100937.00;5190842;28;20025;-75
2022/06/23 07:01:26;;;;;;;;;;;;;;;19.65;73.11;100940.31;5191612;28;20665;-75
2022/06/23 07:03:57;;;;;;;;;;;;;;;19.80;72.81;100943.19;5195168;28;20430;-75
2022/06/23 07:06:42;;;;;;;;;;;;;;;19.93;72.48;100947.00;5197985;28;19913;-74
2022/06/23 07:09:34;;;;;;;;;;;;;;;20.08;71.92;100947.13;5202223;28;19917;-75
2022/06/23 07:12:18;;;;;;;;;;;;;;;20.28;70.92;100942.06;5199847;28;19917;-75
2022/06/23 07:15:04;;;;;;;;;;;;;;;20.45;70.98;100936.56;5199780;28;19924;-75
2022/06/23 07:17:40;;;;;;;;;;;;;;;20.63;70.46;100941.72;5198751;28;19921;-74
2022/06/23 07:20:18;;;;;;;;;;;;;;;20.77;70.60;100940.94;5195433;28;20067;-74
2022/06/23 07:22:57;;;;;;;;;;;;;;;20.92;69.89;100938.25;5193210;28;19935;-75
2022/06/23 07:25:35;;;;;;;;;;;;;;;21.07;69.76;100930.13;5197237;28;19921;-75
2022/06/23 07:28:13;;;;;;;;;;;;;;;21.20;70.10;100926.81;5192767;28;19988;-75
2022/06/23 07:30:57;;;;;;;;;;;;;;;21.39;69.63;100931.69;5192903;28;19964;-74
2022/06/23 07:33:42;;;;;;;;;;;;;;;21.58;69.88;100932.19;5193777;28;20418;-75
2022/06/23 07:36:17;;;;;;;;;;;;;;;21.72;69.09;100929.44;5191873;28;20455;-74
2022/06/23 07:39:01;;;;;;;;;;;;;;;21.86;69.45;100925.06;5192019;28;20544;-75
2022/06/23 07:41:36;;;;;;;;;;;;;;;22.01;69.38;100935.88;5190707;28;19925;-74
2022/06/23 07:44:11;;;;;;;;;;;;;;;22.14;69.14;100929.75;5189356;28;19955;-74
2022/06/23 07:46:42;;;;;;;;;;;;;;;22.30;69.10;100932.28;5193648;28;19937;-75
2022/06/23 07:49:14;;;;;;;;;;;;;;;22.45;69.12;100929.50;5192245;28;19917;-73
2022/06/23 07:51:45;;;;;;;;;;;;;;;22.61;68.81;100931.13;5189747;28;19929;-74
2022/06/23 07:54:19;;;;;;;;;;;;;;;22.75;68.99;100933.97;5195402;28;19925;-74
2022/06/23 07:56:51;;;;;;;;;;;;;;;22.88;69.05;100934.94;5198465;28;20316;-74
2022/06/23 07:59:30;;;;;;;;;;;;;;;23.02;68.60;100929.59;5200838;28;19917;-74
2022/06/23 08:02:08;;;;;;;;;;;;;;;23.11;67.94;100928.44;5191284;28;19928;-74
2022/06/23 08:04:58;;;;;;;;;;;;;;;23.26;68.20;100931.91;5204989;28;19917;-74
2022/06/23 08:07:30;;;;;;;;;;;;;;;23.42;67.83;100930.75;5212524;28;20012;-74
2022/06/23 08:10:06;;;;;;;;;;;;;;;23.53;67.81;100937.50;5199289;28;19948;-74
2022/06/23 08:12:58;;;;;;;;;;;;;;;23.60;67.67;100922.03;5195631;28;20052;-74
2022/06/23 08:18:26;;;;;;;;;;;;;;;23.87;67.64;100916.72;5194405;28;20438;-74
2022/06/23 08:21:01;;;;;;;;;;;;;;;23.99;67.13;100923.31;5197957;28;19921;-72
2022/06/23 08:23:47;;;;;;;;;;;;;;;24.11;67.26;100920.00;5215038;28;19922;-72
2022/06/23 08:26:21;;;;;;;;;;;;;;;24.26;66.87;100907.03;5206170;28;19951;-72
2022/06/23 08:29:00;;;;;;;;;;;;;;;24.36;66.36;100912.91;5201831;28;19921;-73
2022/06/23 08:31:31;;;;;;;;;;;;;;;24.48;66.31;100917.75;5205732;28;19921;-72
2022/06/23 08:34:02;;;;;;;;;;;;;;;24.60;65.71;100914.25;5207044;28;19959;-73
2022/06/23 08:36:38;;;;;;;;;;;;;;;24.72;65.61;100917.19;5202861;28;20286;-72
2022/06/23 08:39:19;;;;;;;;;;;;;;;24.82;65.50;100909.41;5200466;28;20035;-72
2022/06/23 08:42:13;;;;;;;;;;;;;;;24.92;65.19;100921.81;5201707;28;20036;-72
2022/06/23 08:44:55;;;;;;;;;;;;;;;25.01;63.82;100912.34;5198953;28;20390;-72
2022/06/23 08:47:42;;;;;;;;;;;;;;;25.13;63.99;100916.09;5199830;28;19991;-72
2022/06/23 08:50:18;;;;;;;;;;;;;;;25.27;64.19;100914.22;5203377;28;19925;-72
2022/06/23 08:52:56;;;;;;;;;;;;;;;25.36;64.16;100912.13;5207606;28;19918;-72
2022/06/23 08:55:31;;;;;;;;;;;;;;;25.50;63.40;100913.75;5212660;28;19928;-72
2022/06/23 08:58:05;;;;;;;;;;;;;;;25.59;63.40;100915.19;5206638;28;19921;-72
2022/06/23 09:00:58;;;;;;;;;;;;;;;25.68;62.77;100906.75;5206068;28;19922;-72
2022/06/23 09:03:32;;;;;;;;;;;;;;;25.80;62.21;100902.31;5200715;28;20342;-73
2022/06/23 09:06:06;;;;;;;;;;;;;;;25.93;62.33;100912.38;5204179;28;19913;-72
2022/06/23 09:08:44;;;;;;;;;;;;;;;26.04;62.66;100914.41;5201895;28;19922;-72
2022/06/23 09:11:21;;;;;;;;;;;;;;;26.09;61.62;100906.38;5204495;28;19922;-72
2022/06/23 09:14:06;;;;;;;;;;;;;;;26.10;62.25;100909.97;5203819;28;19921;-72
2022/06/23 09:16:56;;;;;;;;;;;;;;;26.21;62.07;100903.78;5204669;28;20366;-72
2022/06/23 09:19:45;;;;;;;;;;;;;;;26.37;62.47;100899.72;5199522;28;20107;-73
2022/06/23 09:22:25;;;;;;;;;;;;;;;26.50;61.40;100904.25;5202107;28;19956;-72
2022/06/23 09:24:58;;;;;;;;;;;;;;;26.60;61.71;100900.00;5200898;28;20347;-73
2022/06/23 09:27:50;;;;;;;;;;;;;;;26.66;61.50;100898.25;5202218;28;19956;-72
2022/06/23 09:30:28;;;;;;;;;;;;;;;26.78;62.03;100903.84;5206529;28;20387;-72
2022/06/23 09:33:17;;;;;;;;;;;;;;;26.87;61.07;100888.81;5204781;28;19925;-72
2022/06/23 09:36:07;;;;;;;;;;;;;;;27.04;60.73;100889.09;5198113;28;19929;-72
2022/06/23 09:38:38;;;;;;;;;;;;;;;27.16;61.18;100895.50;5201998;28;19913;-73
2022/06/23 09:41:27;;;;;;;;;;;;;;;27.26;61.33;100891.44;5201212;28;19952;-71
2022/06/23 09:44:17;;;;;;;;;;;;;;;27.33;60.26;100890.28;5195763;28;20303;-73
2022/06/23 09:46:48;;;;;;;;;;;;;;;27.51;60.97;100886.69;5197454;28;19971;-73
2022/06/23 09:49:22;;;;;;;;;;;;;;;27.68;60.03;100878.69;5203534;28;20215;-72
2022/06/23 09:52:08;;;;;;;;;;;;;;;27.79;59.37;100885.31;5203369;28;19927;-72
2022/06/23 09:54:45;;;;;;;;;;;;;;;27.91;58.63;100882.66;5201341;28;19924;-73
2022/06/23 09:57:25;;;;;;;;;;;;;;;28.09;58.95;100885.34;5203071;28;20633;-72
2022/06/23 10:00:15;;;;;;;;;;;;;;;28.28;58.13;100875.16;5203063;28;19917;-73
2022/06/23 10:03:00;;;;;;;;;;;;;;;28.42;58.57;100878.53;5200757;28;19937;-73
2022/06/23 10:05:38;;;;;;;;;;;;;;;28.48;57.93;100882.25;5192279;28;20387;-72
2022/06/23 10:08:15;;;;;;;;;;;;;;;28.55;57.50;100885.75;5198956;28;19920;-72
2022/06/23 10:11:04;;;;;;;;;;;;;;;28.62;56.31;100881.00;5201503;28;20000;-72
2022/06/23 10:13:51;;;;;;;;;;;;;;;28.67;57.68;100886.63;5204224;28;20051;-72
2022/06/23 10:16:28;;;;;;;;;;;;;;;28.69;58.04;100881.72;5201866;28;20308;-72
2022/06/23 10:19:02;;;;;;;;;;;;;;;28.73;57.30;100880.16;5200382;28;20212;-72
2022/06/23 10:21:42;;;;;;;;;;;;;;;28.83;56.82;100878.75;5200819;28;20008;-71
2022/06/23 10:24:33;;;;;;;;;;;;;;;28.95;57.14;100876.81;5199296;28;20294;-71
2022/06/23 10:27:23;;;;;;;;;;;;;;;29.05;56.49;100877.09;5193376;28;19945;-72
2022/06/23 10:30:15;;;;;;;;;;;;;;;29.22;56.25;100881.88;5197026;28;19921;-72
2022/06/23 10:33:00;;;;;;;;;;;;;;;29.33;55.81;100876.34;5201915;28;19921;-73
2022/06/23 10:35:40;;;;;;;;;;;;;;;29.32;54.41;100871.94;5201278;28;19917;-71
2022/06/23 10:38:11;;;;;;;;;;;;;;;29.31;53.16;100863.94;5202789;28;19932;-72
2022/06/23 10:41:01;;;;;;;;;;;;;;;29.29;53.38;100866.91;5196327;28;19929;-72
2022/06/23 10:43:51;;;;;;;;;;;;;;;29.36;54.89;100864.06;5197145;28;20418;-71
2022/06/23 10:46:24;;;;;;;;;;;;;;;29.48;53.95;100858.53;5198141;28;20012;-71
2022/06/23 10:48:58;;;;;;;;;;;;;;;29.54;53.25;100856.72;5200541;28;19913;-72
2022/06/23 10:51:29;;;;;;;;;;;;;;;29.57;52.99;100851.56;5199033;28;19922;-71
2022/06/23 10:54:04;;;;;;;;;;;;;;;29.62;52.31;100846.16;5200716;28;19917;-69
2022/06/23 10:56:53;;;;;;;;;;;;;;;29.69;52.55;100846.84;5206132;28;19929;-70
2022/06/23 10:59:25;;;;;;;;;;;;;;;29.70;53.28;100847.69;5210538;28;19925;-71
2022/06/23 11:01:56;;;;;;;;;;;;;;;29.65;51.02;100844.84;5207817;28;19924;-72
2022/06/23 11:04:46;;;;;;;;;;;;;;;29.62;52.28;100842.56;5208079;28;19918;-71
2022/06/23 11:07:23;;;;;;;;;;;;;;;29.63;51.68;100835.97;5209385;28;20394;-71
2022/06/23 11:10:14;;;;;;;;;;;;;;;29.62;51.63;100837.09;5208530;28;19967;-72
2022/06/23 11:12:52;;;;;;;;;;;;;;;29.63;51.22;100844.22;5204272;28;19921;-71
2022/06/23 11:15:30;;;;;;;;;;;;;;;29.68;52.12;100839.66;5207363;28;19917;-70
2022/06/23 11:18:08;;;;;;;;;;;;;;;29.63;50.51;100838.72;5202694;28;19927;-69
2022/06/23 11:20:51;;;;;;;;;;;;;;;29.61;50.74;100838.16;5203943;28;19925;-69
2022/06/23 11:23:25;;;;;;;;;;;;;;;29.71;51.21;100836.44;5199498;28;19921;-69
2022/06/23 11:26:15;;;;;;;;;;;;;;;29.81;52.05;100840.50;5198757;28;19917;-69
2022/06/23 11:28:57;;;;;;;;;;;;;;;29.82;51.32;100834.75;5204983;28;19921;-69
2022/06/23 11:31:38;;;;;;;;;;;;;;;29.82;51.75;100842.16;5203052;28;19917;-69
2022/06/23 11:34:29;;;;;;;;;;;;;;;29.89;51.77;100838.19;5196792;28;20870;-69
2022/06/23 11:37:17;;;;;;;;;;;;;;;29.96;50.55;100842.72;5203344;28;19921;-69
2022/06/23 11:39:49;;;;;;;;;;;;;;;30.06;50.77;100849.22;5200789;28;19921;-69
2022/06/23 11:42:38;;;;;;;;;;;;;;;30.06;49.58;100842.91;5198553;28;20419;-67
2022/06/23 11:45:15;;;;;;;;;;;;;;;29.99;49.72;100836.72;5201493;28;19991;-67
2022/06/23 11:47:52;;;;;;;;;;;;;;;30.00;49.98;100838.38;5198922;28;20215;-67
2022/06/23 11:50:32;;;;;;;;;;;;;;;30.02;50.99;100831.56;5207415;28;20339;-69
2022/06/23 11:53:06;;;;;;;;;;;;;;;30.12;50.56;100825.38;5206604;28;19924;-69
2022/06/23 11:55:40;;;;;;;;;;;;;;;30.06;47.84;100812.63;5202661;28;19921;-69
2022/06/23 11:58:14;;;;;;;;;;;;;;;29.94;49.83;100820.13;5212052;28;19971;-70
2022/06/23 12:01:04;;;;;;;;;;;;;;;29.88;50.34;100819.19;5210478;28;20590;-69
2022/06/23 12:03:50;;;;;;;;;;;;;;;30.00;51.06;100821.88;5203558;28;20358;-69
2022/06/23 12:06:21;;;;;;;;;;;;;;;30.12;51.15;100813.56;5208095;28;19917;-70
2022/06/23 12:08:53;;;;;;;;;;;;;;;30.05;50.85;100813.69;5207245;28;19926;-70
2022/06/23 12:11:25;;;;;;;;;;;;;;;29.98;49.85;100821.28;5206751;28;19921;-70
2022/06/23 12:13:58;;;;;;;;;;;;;;;29.99;49.82;100821.03;5205351;28;20015;-70
2022/06/23 12:16:30;;;;;;;;;;;;;;;30.12;50.51;100817.13;5207536;28;19929;-70
2022/06/23 12:19:05;;;;;;;;;;;;;;;30.25;50.37;100807.72;5205532;28;19924;-69
2022/06/23 12:21:42;;;;;;;;;;;;;;;30.32;48.82;100822.19;5206528;28;19952;-69
2022/06/23 12:24:19;;;;;;;;;;;;;;;30.36;50.10;100811.50;5206607;28;20422;-70
2022/06/23 12:26:59;;;;;;;;;;;;;;;30.36;49.50;100804.09;5201044;28;20708;-70
2022/06/23 12:29:36;;;;;;;;;;;;;;;30.34;49.74;100800.75;5201844;28;19979;-69
2022/06/23 12:32:16;;;;;;;;;;;;;;;30.41;50.16;100803.34;5200443;28;20315;-69
2022/06/23 12:34:57;;;;;;;;;;;;;;;30.55;50.32;100812.09;5202569;28;19936;-69
2022/06/23 12:37:29;;;;;;;;;;;;;;;30.63;48.42;100807.00;5206098;28;19917;-70
2022/06/23 12:40:09;;;;;;;;;;;;;;;30.70;47.34;100798.53;5215457;28;19917;-69
2022/06/23 12:42:49;;;;;;;;;;;;;;;30.77;49.41;100804.72;5207306;28;20390;-70
2022/06/23 12:45:23;;;;;;;;;;;;;;;30.79;48.64;100797.03;5209939;28;19917;-70
2022/06/23 12:48:13;;;;;;;;;;;;;;;30.74;48.20;100798.88;5206571;28;19928;-70
2022/06/23 12:50:53;;;;;;;;;;;;;;;30.66;49.38;100787.22;5206133;28;19976;-70
2022/06/23 12:53:48;;;;;;;;;;;;;;;30.64;48.39;100796.81;5205791;28;20335;-69
2022/06/23 12:56:38;;;;;;;;;;;;;;;30.63;48.59;100792.41;5204412;28;20361;-70
2022/06/23 12:59:11;;;;;;;;;;;;;;;30.61;49.43;100787.13;5206476;28;20389;-70
2022/06/23 13:01:42;;;;;;;;;;;;;;;30.64;48.93;100785.78;5206376;28;19965;-70
2022/06/23 13:04:17;;;;;;;;;;;;;;;30.67;49.17;100775.09;5206143;28;20036;-70
2022/06/23 13:06:53;;;;;;;;;;;;;;;30.75;48.80;100779.34;5204674;28;20004;-70
2022/06/23 13:09:29;;;;;;;;;;;;;;;30.85;47.88;100779.47;5203579;28;20443;-70
2022/06/23 13:12:07;;;;;;;;;;;;;;;30.86;47.86;100781.16;5202562;28;19969;-70
2022/06/23 13:15:01;;;;;;;;;;;;;;;30.82;45.45;100770.91;5203401;28;20380;-70
2022/06/23 13:17:42;;;;;;;;;;;;;;;30.78;46.61;100759.56;5207549;28;19917;-70
2022/06/23 13:20:32;;;;;;;;;;;;;;;30.79;46.82;100754.88;5206790;28;20288;-71
2022/06/23 13:23:03;;;;;;;;;;;;;;;30.80;47.17;100751.88;5204886;28;19921;-70
2022/06/23 13:25:36;;;;;;;;;;;;;;;30.86;46.06;100763.81;5206124;28;19940;-70
2022/06/23 13:28:18;;;;;;;;;;;;;;;30.94;45.05;100751.53;5202034;28;20394;-71
2022/06/23 13:30:52;;;;;;;;;;;;;;;30.94;46.52;100752.38;5201036;28;20580;-71
2022/06/23 13:33:30;;;;;;;;;;;;;;;30.96;45.85;100757.63;5202926;28;19929;-70
2022/06/23 13:36:04;;;;;;;;;;;;;;;30.94;43.54;100749.59;5202660;28;19913;-70
2022/06/23 13:38:40;;;;;;;;;;;;;;;30.96;44.13;100747.44;5202170;28;20008;-71
2022/06/23 13:41:25;;;;;;;;;;;;;;;30.94;43.58;100749.59;5206320;28;19928;-70
2022/06/23 13:44:05;;;;;;;;;;;;;;;30.99;43.99;100740.56;5201082;28;19928;-70